This is the latest recevied weather packets stored in our database for station/object KG7BDA. If no packets are shown the sender has not sent any weather packets the latest 10 day(s).
| Time | Temp. | Humidity | Pressure | Rain* | Wind** | Luminosity | Snow |
|---|---|---|---|---|---|---|---|
| 1777782795 | 12.22° C | 58% | 1014.1 hPa | 0 mm | - | - | - |
| 1777782434 | 13.33° C | 55% | 1014.1 hPa | 0 mm | - | - | - |
| 1777782074 | 14.44° C | 51% | 1014.1 hPa | 0 mm | - | - | - |
| 1777781714 | 13.89° C | 53% | 1014 hPa | 0 mm | - | - | - |
| 1777781354 | 15° C | 52% | 1014 hPa | 0 mm | - | - | - |
| 1777780994 | 15.56° C | 48% | 1014 hPa | 0 mm | - | - | - |
| 1777780635 | 15.56° C | 50% | 1014 hPa | 0 mm | - | - | - |
| 1777780275 | 15.56° C | 50% | 1013.9 hPa | 0 mm | - | - | - |
| 1777779914 | 15° C | 52% | 1013.8 hPa | 0 mm | - | - | - |
| 1777779554 | 15.56° C | 49% | 1013.8 hPa | 0 mm | - | - | - |
| 1777779195 | 16.67° C | 47% | 1013.6 hPa | 0 mm | - | - | - |
| 1777778835 | 17.22° C | 46% | 1013.8 hPa | 0 mm | - | - | - |
| 1777778474 | 18.33° C | 41% | 1013.7 hPa | 0 mm | - | - | - |
| 1777778115 | 20.56° C | 36% | 1013.6 hPa | 0 mm | - | - | - |
| 1777777753 | 20.56° C | 33% | 1013.4 hPa | 0 mm | - | - | - |
| 1777777394 | 20.56° C | 32% | 1013.4 hPa | 0 mm | - | - | - |
| 1777777035 | 20.56° C | 32% | 1013.5 hPa | 0 mm | - | - | - |
| 1777776673 | 20.56° C | 31% | 1013.5 hPa | 0 mm | - | - | - |
| 1777776314 | 21.11° C | 31% | 1013.6 hPa | 0 mm | - | - | - |
| 1777775955 | 21.11° C | 30% | 1013.6 hPa | 0 mm | - | - | - |
| 1777775593 | 21.67° C | 29% | 1013.6 hPa | 0 mm | - | - | - |
| 1777775234 | 21.67° C | 29% | 1013.6 hPa | 0 mm | - | - | - |
| 1777774874 | 21.67° C | 28% | 1013.6 hPa | 0 mm | - | - | - |
| 1777774514 | 22.22° C | 27% | 1013.6 hPa | 0 mm | - | - | - |
| 1777774154 | 22.22° C | 26% | 1013.7 hPa | 0 mm | - | - | - |
* Rain latest hour (hover to see other rain measurements)
** Current wind speed in m/s (hover to see current wind gust speed)